DAH4001 DTTA-DAAG
Flight info
| Callsign | DAH4001 |
|---|---|
| Flight time | N/A |
| Altitude | 34000 |
| Route | KEMIR2A KEMIR UA411 BJA UJ7 LIMON G26 ZEM |
| Aircraft | B738/M-SDE2E3FGHIRWXY/LB1 |
Departure
| Time | 2026-05-01 15:14 |
|---|---|
| Airport | Tunis Carthage International Airport (DTTA) |
Arrival
| Time | N/A |
|---|---|
| Airport | Houari Boumediene Airport (DAAG) |
| Time | Latitude | Longitude | Altitude | Speed | Heading |
|---|---|---|---|---|---|
| 2026-05-01 14:45 | 36.84531 | 10.21881 | 29 ft | 0 kts | 2° |
| 2026-05-01 15:04 | 36.84523 | 10.21880 | 29 ft | 3 kts | 4° |
| 2026-05-01 15:04 | 36.84503 | 10.21878 | 29 ft | 3 kts | 9° |
| 2026-05-01 15:04 | 36.84484 | 10.21873 | 29 ft | 3 kts | 19° |
| 2026-05-01 15:04 | 36.84466 | 10.21863 | 29 ft | 3 kts | 39° |
| 2026-05-01 15:05 | 36.84455 | 10.21848 | 29 ft | 3 kts | 87° |
| 2026-05-01 15:05 | 36.84455 | 10.21841 | 29 ft | 0 kts | 103° |
| 2026-05-01 15:08 | 36.84453 | 10.21850 | 29 ft | 3 kts | 103° |
| 2026-05-01 15:08 | 36.84445 | 10.21892 | 29 ft | 7 kts | 102° |
| 2026-05-01 15:08 | 36.84411 | 10.21964 | 29 ft | 14 kts | 155° |
| 2026-05-01 15:08 | 36.84283 | 10.21941 | 29 ft | 24 kts | 192° |
| 2026-05-01 15:09 | 36.84091 | 10.21891 | 29 ft | 31 kts | 191° |
| 2026-05-01 15:09 | 36.83917 | 10.21876 | 29 ft | 22 kts | 141° |
| 2026-05-01 15:09 | 36.83876 | 10.22050 | 29 ft | 21 kts | 99° |
| 2026-05-01 15:09 | 36.83873 | 10.22214 | 30 ft | 16 kts | 75° |
| 2026-05-01 15:10 | 36.83877 | 10.22230 | 29 ft | 0 kts | 71° |
| 2026-05-01 15:11 | 36.83877 | 10.22231 | 29 ft | 0 kts | 71° |
| 2026-05-01 15:11 | 36.83880 | 10.22239 | 30 ft | 2 kts | 69° |
| 2026-05-01 15:12 | 36.83889 | 10.22263 | 30 ft | 4 kts | 62° |
| 2026-05-01 15:12 | 36.83927 | 10.22337 | 30 ft | 7 kts | 54° |
| 2026-05-01 15:12 | 36.83963 | 10.22382 | 30 ft | 8 kts | 33° |
| 2026-05-01 15:13 | 36.84001 | 10.22400 | 30 ft | 1 kts | 12° |
| 2026-05-01 15:14 | 36.84360 | 10.22498 | 29 ft | 82 kts | 12° |
| 2026-05-01 15:14 | 36.85114 | 10.22697 | 36 ft | 136 kts | 11° |
| 2026-05-01 15:14 | 36.87031 | 10.23219 | 967 ft | 149 kts | 16° |
| 2026-05-01 15:15 | 36.89366 | 10.23874 | 1727 ft | 190 kts | 18° |
| 2026-05-01 15:15 | 36.92246 | 10.24725 | 2194 ft | 240 kts | 14° |
| 2026-05-01 15:16 | 36.95711 | 10.25091 | 3478 ft | 262 kts | 345° |
| 2026-05-01 15:16 | 36.98236 | 10.21965 | 5116 ft | 269 kts | 287° |
| 2026-05-01 15:17 | 36.97392 | 10.17510 | 6660 ft | 283 kts | 231° |
| 2026-05-01 15:18 | 36.93217 | 10.12179 | 9043 ft | 293 kts | 229° |
| 2026-05-01 15:18 | 36.91770 | 10.10351 | 9829 ft | 298 kts | 229° |
| 2026-05-01 15:19 | 36.88977 | 10.03145 | 10974 ft | 344 kts | 259° |
| 2026-05-01 15:19 | 36.87757 | 9.97042 | 11759 ft | 373 kts | 258° |
| 2026-05-01 15:19 | 36.87112 | 9.93899 | 12511 ft | 375 kts | 258° |
| 2026-05-01 15:20 | 36.85783 | 9.87545 | 14023 ft | 382 kts | 258° |
| 2026-05-01 15:20 | 36.85105 | 9.84323 | 14704 ft | 385 kts | 258° |
| 2026-05-01 15:20 | 36.84457 | 9.81063 | 15385 ft | 388 kts | 263° |
| 2026-05-01 15:21 | 36.84253 | 9.77707 | 16091 ft | 388 kts | 271° |
| 2026-05-01 15:21 | 36.84239 | 9.74338 | 16871 ft | 389 kts | 272° |
| 2026-05-01 15:21 | 36.84240 | 9.70943 | 17562 ft | 393 kts | 272° |
| 2026-05-01 15:21 | 36.84226 | 9.67522 | 18225 ft | 397 kts | 272° |
| 2026-05-01 15:22 | 36.84141 | 9.60579 | 19412 ft | 403 kts | 271° |
| 2026-05-01 15:22 | 36.84081 | 9.57077 | 20056 ft | 404 kts | 270° |
| 2026-05-01 15:22 | 36.84017 | 9.53574 | 20687 ft | 405 kts | 270° |
| 2026-05-01 15:23 | 36.83951 | 9.50052 | 21279 ft | 407 kts | 270° |
| 2026-05-01 15:23 | 36.83884 | 9.46514 | 21845 ft | 409 kts | 270° |
| 2026-05-01 15:23 | 36.83817 | 9.42952 | 22304 ft | 413 kts | 269° |
| 2026-05-01 15:23 | 36.83745 | 9.39352 | 22814 ft | 416 kts | 269° |
| 2026-05-01 15:24 | 36.83666 | 9.35735 | 23358 ft | 417 kts | 269° |
| 2026-05-01 15:24 | 36.83585 | 9.32111 | 23857 ft | 419 kts | 269° |
| 2026-05-01 15:24 | 36.83503 | 9.28469 | 24256 ft | 422 kts | 269° |
| 2026-05-01 15:24 | 36.83420 | 9.24801 | 24642 ft | 424 kts | 269° |
| 2026-05-01 15:25 | 36.83336 | 9.21107 | 25027 ft | 427 kts | 269° |
| 2026-05-01 15:25 | 36.83251 | 9.17397 | 25405 ft | 429 kts | 269° |
| 2026-05-01 15:25 | 36.83164 | 9.13667 | 25780 ft | 431 kts | 269° |
| 2026-05-01 15:25 | 36.83073 | 9.09914 | 26154 ft | 434 kts | 269° |
| 2026-05-01 15:26 | 36.82965 | 9.06140 | 26451 ft | 438 kts | 268° |
| 2026-05-01 15:26 | 36.82849 | 9.02330 | 26754 ft | 441 kts | 268° |
| 2026-05-01 15:26 | 36.82731 | 8.98497 | 27109 ft | 443 kts | 268° |
| 2026-05-01 15:26 | 36.82693 | 8.94652 | 27461 ft | 444 kts | 271° |
| 2026-05-01 15:27 | 36.82768 | 8.90790 | 27803 ft | 446 kts | 272° |
| 2026-05-01 15:27 | 36.82882 | 8.86909 | 28104 ft | 449 kts | 272° |
| 2026-05-01 15:27 | 36.82998 | 8.83014 | 28462 ft | 449 kts | 272° |
| 2026-05-01 15:28 | 36.83190 | 8.75273 | 29546 ft | 444 kts | 272° |
| 2026-05-01 15:28 | 36.83271 | 8.71430 | 29986 ft | 443 kts | 272° |
| 2026-05-01 15:28 | 36.83349 | 8.67570 | 30252 ft | 447 kts | 272° |
| 2026-05-01 15:29 | 36.83448 | 8.59846 | 30991 ft | 446 kts | 270° |
| 2026-05-01 15:29 | 36.83445 | 8.56001 | 31555 ft | 440 kts | 270° |
| 2026-05-01 15:29 | 36.83420 | 8.48412 | 32445 ft | 436 kts | 269° |
| 2026-05-01 15:30 | 36.83404 | 8.42063 | 33045 ft | 436 kts | 269° |
| 2026-05-01 15:31 | 36.83377 | 8.25813 | 34168 ft | 435 kts | 269° |
| 2026-05-01 15:31 | 36.83359 | 8.18295 | 34156 ft | 429 kts | 269° |
| 2026-05-01 15:32 | 36.83308 | 8.03446 | 34161 ft | 427 kts | 269° |
| 2026-05-01 15:34 | 36.83198 | 7.81159 | 34158 ft | 430 kts | 268° |